createdAt,value
2023-05-19T00:01:00.498Z,9.36
2023-05-19T00:03:27.294Z,9.32
2023-05-19T00:05:54.197Z,9.27
2023-05-19T00:08:23.831Z,9.25
2023-05-19T00:10:50.876Z,9.25
2023-05-19T00:13:17.609Z,9.23
2023-05-19T00:15:44.499Z,9.16
2023-05-19T00:18:13.968Z,9.13
2023-05-19T00:20:41.331Z,9.08
2023-05-19T00:23:08.464Z,9.07
2023-05-19T00:25:35.001Z,9.03
2023-05-19T00:28:02.509Z,9.02
2023-05-19T00:30:30.261Z,8.95
2023-05-19T00:32:57.062Z,8.91
2023-05-19T00:35:24.227Z,8.85
2023-05-19T00:37:50.809Z,8.84
2023-05-19T00:40:17.457Z,8.81
2023-05-19T00:42:44.010Z,8.74
2023-05-19T00:45:10.676Z,8.69
2023-05-19T00:47:37.300Z,8.67
2023-05-19T00:50:03.960Z,8.65
2023-05-19T00:52:30.757Z,8.62
2023-05-19T00:54:57.307Z,8.61
2023-05-19T00:57:24.094Z,8.58
2023-05-19T00:59:50.820Z,8.58
2023-05-19T01:02:18.054Z,8.53
2023-05-19T01:04:45.091Z,8.49
2023-05-19T01:07:12.747Z,8.43
2023-05-19T01:09:40.727Z,8.40
2023-05-19T01:12:08.689Z,8.36
2023-05-19T01:14:35.427Z,8.35
2023-05-19T01:17:15.081Z,8.35
2023-05-19T01:19:46.810Z,8.30
2023-05-19T01:22:42.692Z,8.28
2023-05-19T01:25:32.268Z,8.26
2023-05-19T01:28:19.400Z,8.21
2023-05-19T01:30:49.039Z,8.19
2023-05-19T01:33:17.746Z,8.15
2023-05-19T01:35:45.818Z,8.13
2023-05-19T01:38:14.642Z,8.12
2023-05-19T01:40:41.959Z,8.05
2023-05-19T01:43:10.911Z,8.01
2023-05-19T01:45:38.449Z,8.00
2023-05-19T01:48:07.231Z,8.00
2023-05-19T01:50:35.798Z,7.99
2023-05-19T01:53:02.393Z,7.95
2023-05-19T01:55:29.189Z,7.91
2023-05-19T01:58:20.901Z,7.86
2023-05-19T02:00:57.899Z,7.82
2023-05-19T02:03:48.046Z,7.76
2023-05-19T02:06:27.149Z,7.73
2023-05-19T02:09:15.270Z,7.73
2023-05-19T02:12:01.073Z,7.69
2023-05-19T02:14:35.355Z,7.69
2023-05-19T02:17:04.876Z,7.68
2023-05-19T02:19:35.435Z,7.66
2023-05-19T02:22:01.995Z,7.64
2023-05-19T02:24:28.586Z,7.63
2023-05-19T02:26:55.375Z,7.56
2023-05-19T02:29:21.984Z,7.51
2023-05-19T02:31:50.916Z,7.47
2023-05-19T02:34:18.933Z,7.44
2023-05-19T02:36:45.626Z,7.39
2023-05-19T02:39:12.971Z,7.37
2023-05-19T02:41:39.478Z,7.35
2023-05-19T02:44:06.153Z,7.29
2023-05-19T02:46:32.872Z,7.28
2023-05-19T02:48:59.925Z,7.27
2023-05-19T02:51:27.384Z,7.26
2023-05-19T02:53:53.916Z,7.27
2023-05-19T02:56:21.612Z,7.25
2023-05-19T02:58:48.162Z,7.21
2023-05-19T03:01:14.939Z,7.19
2023-05-19T03:03:41.525Z,7.15
2023-05-19T03:06:08.756Z,7.16
2023-05-19T03:08:36.209Z,7.14
2023-05-19T03:11:03.384Z,7.11
2023-05-19T03:13:29.991Z,7.08
2023-05-19T03:15:59.160Z,7.04
2023-05-19T03:18:28.813Z,7.02
2023-05-19T03:20:55.638Z,7.03
2023-05-19T03:23:22.398Z,7.03
2023-05-19T03:25:48.956Z,7.01
2023-05-19T03:28:17.210Z,6.98
2023-05-19T03:30:43.857Z,6.96
2023-05-19T03:33:17.927Z,6.91
2023-05-19T03:35:46.801Z,6.90
2023-05-19T03:38:14.106Z,6.88
2023-05-19T03:40:47.902Z,6.87
2023-05-19T03:43:16.013Z,6.83
2023-05-19T03:45:47.407Z,6.81
2023-05-19T03:48:32.456Z,6.82
2023-05-19T03:51:29.911Z,6.80
2023-05-19T03:54:03.200Z,6.79
2023-05-19T03:56:29.933Z,6.78
2023-05-19T03:58:56.419Z,6.78
2023-05-19T04:01:22.963Z,6.80
2023-05-19T04:03:51.571Z,6.81
2023-05-19T04:06:19.095Z,6.82
2023-05-19T04:08:45.700Z,6.80
2023-05-19T04:11:12.889Z,6.77
2023-05-19T04:13:39.410Z,6.77
2023-05-19T04:16:06.537Z,6.78
2023-05-19T04:18:33.168Z,6.80
2023-05-19T04:20:59.720Z,6.81
2023-05-19T04:23:26.360Z,6.81
2023-05-19T04:25:54.228Z,6.81
2023-05-19T04:28:23.908Z,6.81
2023-05-19T04:30:51.511Z,6.81
2023-05-19T04:33:19.953Z,6.84
2023-05-19T04:35:46.408Z,6.87
2023-05-19T04:38:14.215Z,6.90
2023-05-19T04:40:42.197Z,6.94
2023-05-19T04:43:09.472Z,6.97
2023-05-19T04:45:37.817Z,6.98
2023-05-19T04:48:05.446Z,6.97
2023-05-19T04:50:34.287Z,7.00
2023-05-19T04:53:01.004Z,7.02
2023-05-19T04:55:27.713Z,7.06
2023-05-19T04:57:54.318Z,7.10
2023-05-19T05:00:21.990Z,7.17
2023-05-19T05:02:59.007Z,7.23
2023-05-19T05:05:28.265Z,7.25
2023-05-19T05:07:55.097Z,7.33
2023-05-19T05:10:23.507Z,7.35
2023-05-19T05:12:51.569Z,7.51
2023-05-19T05:15:18.585Z,7.90
2023-05-19T05:17:52.437Z,8.07
2023-05-19T05:20:20.931Z,8.12
2023-05-19T05:22:48.020Z,8.19
2023-05-19T05:25:16.350Z,8.39
2023-05-19T05:27:45.207Z,8.62
2023-05-19T05:30:12.978Z,8.56
2023-05-19T05:32:42.504Z,8.73
2023-05-19T05:35:18.214Z,8.94
2023-05-19T05:37:44.793Z,8.98
2023-05-19T05:40:11.892Z,9.05
2023-05-19T05:42:42.388Z,9.36
2023-05-19T05:45:11.780Z,9.49
2023-05-19T05:47:39.991Z,9.64
2023-05-19T05:50:09.567Z,9.81
2023-05-19T05:52:37.376Z,10.07
2023-05-19T05:55:05.352Z,10.38
2023-05-19T05:57:35.347Z,10.77
2023-05-19T06:00:03.193Z,10.78
2023-05-19T06:02:31.425Z,10.85
2023-05-19T06:04:58.534Z,10.68
2023-05-19T06:07:27.695Z,10.46
2023-05-19T06:09:54.280Z,10.72
2023-05-19T06:12:20.858Z,11.36
2023-05-19T06:14:49.314Z,11.95
2023-05-19T06:17:46.638Z,12.50
2023-05-19T06:20:13.829Z,13.31
2023-05-19T06:22:40.649Z,13.39
2023-05-19T06:25:08.983Z,13.40
2023-05-19T06:27:36.233Z,13.77
2023-05-19T06:30:04.090Z,14.40
2023-05-19T06:32:38.474Z,14.82
2023-05-19T06:35:07.200Z,15.59
2023-05-19T06:37:39.864Z,15.75
2023-05-19T06:40:10.602Z,15.76
2023-05-19T06:42:38.872Z,15.62
2023-05-19T06:45:16.247Z,15.70
2023-05-19T06:47:45.069Z,15.72
2023-05-19T06:50:11.819Z,15.97
2023-05-19T06:52:41.418Z,16.31
2023-05-19T06:55:08.216Z,16.91
2023-05-19T06:57:37.174Z,16.89
2023-05-19T07:00:05.792Z,16.76
2023-05-19T07:02:32.523Z,16.76
2023-05-19T07:04:59.274Z,17.27
2023-05-19T07:07:26.747Z,17.42
2023-05-19T07:09:56.240Z,17.30
2023-05-19T07:12:23.444Z,17.43
2023-05-19T07:14:50.742Z,17.39
2023-05-19T07:17:17.778Z,17.22
2023-05-19T07:19:45.607Z,17.20
2023-05-19T07:22:12.398Z,17.28
2023-05-19T07:24:39.063Z,17.13
2023-05-19T07:27:05.732Z,17.20
2023-05-19T07:29:32.388Z,17.56
2023-05-19T07:31:58.968Z,17.67
2023-05-19T07:34:27.283Z,18.05
2023-05-19T07:36:53.888Z,18.21
2023-05-19T07:39:20.932Z,18.45
2023-05-19T07:41:52.717Z,18.56
2023-05-19T07:44:19.392Z,18.50
2023-05-19T07:46:45.992Z,18.26
2023-05-19T07:49:12.593Z,17.97
2023-05-19T07:51:41.825Z,18.17
2023-05-19T07:54:08.821Z,18.56
2023-05-19T07:56:35.551Z,18.63
2023-05-19T07:59:03.351Z,18.79
2023-05-19T08:01:31.223Z,18.67
2023-05-19T08:03:58.808Z,18.61
2023-05-19T08:06:25.782Z,18.75
2023-05-19T08:08:54.160Z,19.04
2023-05-19T08:11:21.474Z,19.39
2023-05-19T08:13:49.513Z,19.84
2023-05-19T08:16:16.525Z,20.00
2023-05-19T08:18:43.560Z,20.25
2023-05-19T08:21:10.083Z,20.85
2023-05-19T08:23:37.428Z,20.99
2023-05-19T08:26:04.236Z,21.04
2023-05-19T08:28:30.875Z,21.12
2023-05-19T08:31:00.455Z,21.28
2023-05-19T08:33:27.060Z,21.17
2023-05-19T08:35:55.394Z,21.15
2023-05-19T08:38:22.032Z,20.94
2023-05-19T08:40:48.768Z,21.09
2023-05-19T08:43:15.432Z,21.20
2023-05-19T08:45:48.119Z,21.22
2023-05-19T08:48:18.048Z,21.42
2023-05-19T08:51:16.791Z,21.84
2023-05-19T08:53:50.414Z,21.83
2023-05-19T08:56:24.785Z,22.02
2023-05-19T08:58:51.692Z,22.00
2023-05-19T09:01:20.020Z,22.24
2023-05-19T09:03:52.325Z,22.45
2023-05-19T09:06:18.852Z,22.30
2023-05-19T09:08:47.030Z,22.03
2023-05-19T09:11:15.051Z,21.81
2023-05-19T09:13:42.122Z,21.75
2023-05-19T09:16:08.748Z,21.95
2023-05-19T09:18:39.021Z,21.98
2023-05-19T09:21:07.164Z,22.19
2023-05-19T09:23:34.057Z,22.33
2023-05-19T09:26:08.391Z,22.56
2023-05-19T09:28:36.656Z,22.61
2023-05-19T09:31:10.205Z,22.87
2023-05-19T09:33:45.626Z,22.88
2023-05-19T09:36:12.711Z,23.11
2023-05-19T09:38:39.906Z,23.39
2023-05-19T09:41:08.813Z,23.62
2023-05-19T09:43:35.485Z,23.96
2023-05-19T09:46:14.582Z,23.98
2023-05-19T09:48:41.577Z,24.03
2023-05-19T09:51:10.223Z,23.77
2023-05-19T09:53:36.907Z,23.27
2023-05-19T09:56:04.039Z,23.34
2023-05-19T09:59:20.025Z,23.49
2023-05-19T10:01:47.265Z,23.63
2023-05-19T10:04:15.604Z,23.45
2023-05-19T10:06:43.200Z,23.36
2023-05-19T10:09:11.610Z,23.18
2023-05-19T10:11:39.004Z,23.61
2023-05-19T10:14:06.239Z,23.88
2023-05-19T10:16:33.485Z,23.76
2023-05-19T10:19:00.790Z,23.92
2023-05-19T10:21:27.954Z,23.70
2023-05-19T10:23:55.193Z,23.67
2023-05-19T10:26:23.078Z,23.66
2023-05-19T10:28:57.456Z,23.35
2023-05-19T10:31:24.927Z,23.64
2023-05-19T10:34:00.708Z,23.91
2023-05-19T10:36:51.347Z,24.24
2023-05-19T10:39:24.888Z,24.35
2023-05-19T10:42:10.065Z,24.38
2023-05-19T10:45:11.622Z,24.45
2023-05-19T10:47:41.159Z,24.37
2023-05-19T10:50:08.534Z,24.85
2023-05-19T10:52:39.213Z,25.14
2023-05-19T10:55:15.687Z,24.70
2023-05-19T10:58:00.475Z,24.59
2023-05-19T11:00:28.186Z,24.89
2023-05-19T11:03:13.804Z,24.55
2023-05-19T11:05:40.652Z,24.73
2023-05-19T11:08:11.577Z,25.02
2023-05-19T11:10:44.236Z,25.21
2023-05-19T11:13:19.441Z,25.24
2023-05-19T11:15:45.973Z,25.42
2023-05-19T11:18:15.903Z,25.03
2023-05-19T11:20:44.421Z,24.33
2023-05-19T11:23:18.031Z,24.06
2023-05-19T11:25:49.617Z,23.97
2023-05-19T11:28:19.454Z,23.94
2023-05-19T11:30:51.792Z,23.94
2023-05-19T11:33:20.103Z,24.32
2023-05-19T11:35:49.369Z,24.49
2023-05-19T11:38:18.469Z,24.59
2023-05-19T11:40:45.187Z,24.77
2023-05-19T11:43:11.693Z,24.84
2023-05-19T11:45:38.480Z,24.74
2023-05-19T11:48:30.083Z,24.50
2023-05-19T11:50:57.002Z,24.32
2023-05-19T11:53:23.900Z,24.24
2023-05-19T11:55:51.964Z,24.00
2023-05-19T11:58:26.046Z,23.89
2023-05-19T12:00:52.614Z,23.75
2023-05-19T12:03:22.110Z,23.85
2023-05-19T12:05:49.570Z,23.72
2023-05-19T12:08:19.965Z,23.69
2023-05-19T12:10:50.834Z,23.81
2023-05-19T12:13:17.340Z,23.44
2023-05-19T12:15:45.904Z,23.67
2023-05-19T12:18:12.859Z,23.38
2023-05-19T12:20:39.527Z,23.19
2023-05-19T12:23:06.398Z,23.04
2023-05-19T12:25:33.422Z,23.03
2023-05-19T12:28:02.993Z,22.93
2023-05-19T12:30:30.927Z,23.01
2023-05-19T12:32:58.281Z,23.10
2023-05-19T12:35:29.794Z,23.17
2023-05-19T12:37:56.474Z,23.03
2023-05-19T12:40:23.219Z,23.02
2023-05-19T12:42:53.307Z,22.99
2023-05-19T12:45:23.387Z,23.14
2023-05-19T12:47:51.073Z,23.08
2023-05-19T12:50:17.967Z,23.08
2023-05-19T12:52:52.138Z,23.01
2023-05-19T12:55:20.959Z,22.98
2023-05-19T12:57:57.163Z,23.09
2023-05-19T13:00:32.632Z,23.08
2023-05-19T13:03:05.356Z,22.76
2023-05-19T13:05:40.606Z,22.47
2023-05-19T13:08:12.577Z,22.54
2023-05-19T13:10:41.197Z,22.50
2023-05-19T13:13:09.283Z,22.63
2023-05-19T13:15:39.307Z,22.56
2023-05-19T13:18:11.257Z,22.46
2023-05-19T13:20:40.470Z,22.50
2023-05-19T13:23:09.469Z,22.48
2023-05-19T13:25:36.543Z,22.23
2023-05-19T13:28:05.922Z,22.06
2023-05-19T13:30:38.190Z,22.31
2023-05-19T13:33:05.108Z,22.39
2023-05-19T13:35:37.931Z,22.39
2023-05-19T13:38:05.976Z,22.58
2023-05-19T13:40:35.576Z,22.83
2023-05-19T13:43:03.136Z,22.79
2023-05-19T13:45:29.934Z,22.50
2023-05-19T13:47:57.074Z,22.56
2023-05-19T13:50:23.834Z,22.42
2023-05-19T13:52:50.526Z,22.66
2023-05-19T13:55:17.401Z,22.55
2023-05-19T13:57:44.860Z,22.22
2023-05-19T14:00:11.653Z,22.28
2023-05-19T14:02:41.057Z,22.26
2023-05-19T14:05:08.472Z,22.07
2023-05-19T14:07:35.597Z,21.89
2023-05-19T14:10:03.940Z,21.90
2023-05-19T14:12:41.525Z,21.81
2023-05-19T14:15:14.175Z,21.86
2023-05-19T14:17:40.755Z,21.67
2023-05-19T14:20:08.442Z,21.68
2023-05-19T14:22:34.981Z,21.72
2023-05-19T14:25:02.192Z,21.66
2023-05-19T14:27:28.687Z,21.78
2023-05-19T14:29:55.207Z,21.98
2023-05-19T14:32:22.358Z,21.97
2023-05-19T14:34:52.750Z,21.89
2023-05-19T14:37:19.921Z,21.61
2023-05-19T14:39:46.395Z,21.42
2023-05-19T14:42:12.935Z,21.43
2023-05-19T14:44:39.426Z,21.65
2023-05-19T14:47:07.362Z,21.53
2023-05-19T14:49:34.027Z,21.43
2023-05-19T14:52:00.670Z,21.66
2023-05-19T14:54:27.162Z,21.80
2023-05-19T14:56:53.709Z,21.85
2023-05-19T14:59:21.569Z,21.94
2023-05-19T15:01:48.185Z,21.86
2023-05-19T15:04:14.917Z,21.82
2023-05-19T15:06:41.617Z,21.82
2023-05-19T15:09:08.193Z,21.91
2023-05-19T15:11:34.747Z,21.71
2023-05-19T15:14:01.216Z,21.54
2023-05-19T15:16:27.733Z,21.61
2023-05-19T15:18:54.388Z,21.57
2023-05-19T15:21:21.008Z,21.38
2023-05-19T15:23:47.656Z,21.33
2023-05-19T15:26:14.245Z,21.26
2023-05-19T15:28:40.941Z,21.18
2023-05-19T15:31:07.494Z,21.12
2023-05-19T15:33:34.065Z,21.07
2023-05-19T15:36:00.650Z,21.05
2023-05-19T15:38:28.492Z,20.88
2023-05-19T15:40:56.489Z,20.89
2023-05-19T15:43:23.071Z,21.05
2023-05-19T15:45:52.108Z,20.99
2023-05-19T15:48:19.115Z,20.90
2023-05-19T15:50:45.771Z,20.97
2023-05-19T15:53:13.589Z,20.91
2023-05-19T15:55:41.354Z,20.91
2023-05-19T15:58:08.772Z,20.95
2023-05-19T16:00:35.689Z,21.02
2023-05-19T16:03:02.478Z,21.16
2023-05-19T16:05:29.100Z,21.16
2023-05-19T16:07:56.186Z,20.95
2023-05-19T16:10:22.689Z,20.87
2023-05-19T16:12:49.498Z,20.69
2023-05-19T16:15:16.083Z,20.56
2023-05-19T16:17:44.464Z,20.51
2023-05-19T16:20:11.497Z,20.55
2023-05-19T16:22:38.461Z,20.62
2023-05-19T16:25:05.624Z,20.66
2023-05-19T16:27:34.522Z,20.69
2023-05-19T16:30:02.477Z,20.66
2023-05-19T16:32:28.973Z,20.56
2023-05-19T16:34:55.494Z,20.60
2023-05-19T16:37:21.997Z,20.48
2023-05-19T16:39:48.594Z,20.43
2023-05-19T16:42:15.100Z,20.52
2023-05-19T16:44:43.193Z,20.50
2023-05-19T16:47:09.770Z,20.34
2023-05-19T16:49:36.312Z,20.32
2023-05-19T16:52:02.886Z,20.19
2023-05-19T16:54:29.357Z,20.11
2023-05-19T16:56:55.861Z,20.14
2023-05-19T16:59:32.185Z,20.23
2023-05-19T17:01:58.857Z,20.30
2023-05-19T17:04:26.201Z,20.27
2023-05-19T17:07:15.686Z,20.28
2023-05-19T17:09:48.653Z,20.27
2023-05-19T17:12:15.271Z,20.19
2023-05-19T17:14:43.495Z,20.13
2023-05-19T17:17:13.500Z,20.01
2023-05-19T17:19:40.178Z,19.94
2023-05-19T17:22:06.859Z,19.88
2023-05-19T17:24:45.903Z,19.84
2023-05-19T17:27:15.059Z,19.80
2023-05-19T17:29:41.747Z,19.82
2023-05-19T17:32:18.555Z,19.89
2023-05-19T17:34:45.239Z,19.91
2023-05-19T17:37:11.852Z,19.91
2023-05-19T17:39:38.529Z,19.89
2023-05-19T17:42:18.522Z,19.84
2023-05-19T17:44:45.147Z,19.83
2023-05-19T17:47:36.891Z,19.72
2023-05-19T17:50:06.133Z,19.65
2023-05-19T17:52:33.984Z,19.61
2023-05-19T17:55:00.894Z,19.61
2023-05-19T17:57:52.964Z,19.57
2023-05-19T18:00:28.792Z,19.57
2023-05-19T18:02:57.284Z,19.53
2023-05-19T18:05:24.426Z,19.51
2023-05-19T18:08:04.987Z,19.45
2023-05-19T18:10:35.974Z,19.39
2023-05-19T18:13:07.954Z,19.26
2023-05-19T18:15:36.062Z,19.19
2023-05-19T18:18:14.756Z,19.13
2023-05-19T18:20:44.708Z,19.04
2023-05-19T18:23:11.475Z,18.98
2023-05-19T18:25:38.183Z,18.90
2023-05-19T18:28:04.988Z,18.79
2023-05-19T18:31:17.418Z,18.73
2023-05-19T18:33:44.363Z,18.66
2023-05-19T18:36:16.451Z,18.55
2023-05-19T18:38:43.150Z,18.46
2023-05-19T18:41:09.775Z,18.44
2023-05-19T18:43:39.504Z,18.41
2023-05-19T18:46:06.657Z,18.39
2023-05-19T18:48:33.515Z,18.27
2023-05-19T18:51:00.557Z,18.18
2023-05-19T18:53:27.264Z,18.17
2023-05-19T18:55:53.900Z,18.09
2023-05-19T18:58:46.124Z,18.03
2023-05-19T19:01:16.241Z,18.00
2023-05-19T19:03:43.711Z,17.92
2023-05-19T19:06:11.018Z,17.86
2023-05-19T19:08:39.243Z,17.83
2023-05-19T19:11:09.280Z,17.77
2023-05-19T19:13:36.274Z,17.69
2023-05-19T19:16:03.423Z,17.67
2023-05-19T19:18:30.145Z,17.65
2023-05-19T19:20:57.644Z,17.55
2023-05-19T19:23:24.477Z,17.48
2023-05-19T19:25:51.322Z,17.44
2023-05-19T19:28:17.994Z,17.43
2023-05-19T19:30:46.115Z,17.36
2023-05-19T19:33:12.743Z,17.29
2023-05-19T19:35:39.377Z,17.29
2023-05-19T19:38:31.155Z,17.25
2023-05-19T19:41:00.767Z,17.17
2023-05-19T19:43:27.393Z,17.11
2023-05-19T19:46:07.002Z,17.01
2023-05-19T19:49:01.936Z,16.98
2023-05-19T19:51:28.528Z,16.91
2023-05-19T19:53:55.368Z,16.83
2023-05-19T19:56:24.529Z,16.82
2023-05-19T19:58:51.234Z,16.78
2023-05-19T20:01:20.477Z,16.72
2023-05-19T20:03:47.985Z,16.70
2023-05-19T20:06:14.897Z,16.63
2023-05-19T20:08:41.523Z,16.60
2023-05-19T20:11:08.258Z,16.59
2023-05-19T20:13:34.826Z,16.53
2023-05-19T20:16:01.592Z,16.45
2023-05-19T20:18:29.675Z,16.38
2023-05-19T20:20:56.677Z,16.36
2023-05-19T20:23:23.316Z,16.28
2023-05-19T20:26:10.926Z,16.16
2023-05-19T20:28:38.948Z,15.99
2023-05-19T20:31:06.228Z,15.93
2023-05-19T20:33:32.870Z,15.84
2023-05-19T20:36:02.157Z,15.84
2023-05-19T20:38:31.178Z,15.79
2023-05-19T20:40:57.777Z,15.73
2023-05-19T20:43:24.357Z,15.67
2023-05-19T20:45:51.345Z,15.63
2023-05-19T20:48:17.933Z,15.56
2023-05-19T20:50:44.485Z,15.53
2023-05-19T20:53:11.305Z,15.50
2023-05-19T20:55:38.998Z,15.46
2023-05-19T20:58:06.130Z,15.36
2023-05-19T21:00:33.058Z,15.32
2023-05-19T21:03:00.048Z,15.25
2023-05-19T21:05:26.704Z,15.24
2023-05-19T21:07:53.457Z,15.22
2023-05-19T21:10:20.027Z,15.17
2023-05-19T21:12:46.925Z,15.13
2023-05-19T21:15:14.839Z,15.05
2023-05-19T21:17:41.575Z,15.00
2023-05-19T21:20:08.788Z,14.99
2023-05-19T21:22:35.867Z,14.95
2023-05-19T21:25:02.591Z,14.94
2023-05-19T21:27:29.144Z,14.91
2023-05-19T21:29:55.845Z,14.86
2023-05-19T21:32:22.544Z,14.77
2023-05-19T21:34:49.380Z,14.72
2023-05-19T21:37:40.642Z,14.66
2023-05-19T21:40:16.247Z,14.63
2023-05-19T21:42:42.857Z,14.60
2023-05-19T21:45:11.995Z,14.55
2023-05-19T21:47:45.080Z,14.53
2023-05-19T21:50:17.340Z,14.48
2023-05-19T21:52:43.945Z,14.46
2023-05-19T21:55:16.921Z,14.44
2023-05-19T21:57:43.469Z,14.40
2023-05-19T22:00:13.164Z,14.34
2023-05-19T22:02:40.516Z,14.30
2023-05-19T22:05:12.881Z,14.25
2023-05-19T22:07:39.555Z,14.20
2023-05-19T22:10:06.409Z,14.16
2023-05-19T22:12:33.162Z,14.11
2023-05-19T22:15:03.607Z,14.05
2023-05-19T22:17:30.222Z,13.98
2023-05-19T22:19:56.996Z,13.95
2023-05-19T22:22:23.732Z,13.94
2023-05-19T22:24:50.929Z,13.94
2023-05-19T22:27:17.598Z,13.93
2023-05-19T22:29:56.257Z,13.92
2023-05-19T22:32:22.815Z,13.89
2023-05-19T22:35:01.922Z,13.83
2023-05-19T22:40:19.762Z,13.72
2023-05-19T22:43:01.128Z,13.70
2023-05-19T22:45:27.765Z,13.66
2023-05-19T22:48:06.683Z,13.62
2023-05-19T22:50:33.446Z,13.58
2023-05-19T22:53:00.146Z,13.56
2023-05-19T22:55:29.391Z,13.52
2023-05-19T22:57:56.303Z,13.48
2023-05-19T23:00:31.539Z,13.44
2023-05-19T23:03:09.767Z,13.36
2023-05-19T23:05:36.506Z,13.34
2023-05-19T23:08:03.246Z,13.27
2023-05-19T23:10:29.796Z,13.22
2023-05-19T23:12:56.327Z,13.17
2023-05-19T23:15:26.907Z,13.12
2023-05-19T23:17:53.671Z,13.09
2023-05-19T23:20:20.231Z,13.08
2023-05-19T23:22:46.771Z,12.99
2023-05-19T23:25:14.714Z,12.95
2023-05-19T23:27:41.301Z,12.93
2023-05-19T23:30:08.462Z,12.85
2023-05-19T23:32:35.129Z,12.82
2023-05-19T23:35:16.575Z,12.73
2023-05-19T23:37:43.216Z,12.71
2023-05-19T23:40:10.253Z,12.69
2023-05-19T23:42:37.183Z,12.65
2023-05-19T23:45:04.605Z,12.59
2023-05-19T23:47:31.313Z,12.58
2023-05-19T23:49:57.852Z,12.52
2023-05-19T23:52:27.465Z,12.49
2023-05-19T23:54:54.179Z,12.48
2023-05-19T23:57:20.691Z,12.44
2023-05-19T23:59:47.367Z,12.38
